Time;durP1;ratioP1;P1;durP2;ratioP2;P2;SDS_P1;SDS_P2;PMS_P1;PMS_P2;Temp;Humidity;BMP_temperature;BMP_pressure;BME280_temperature;BME280_humidity;BME280_pressure;Samples;Min_cycle;Max_cycle;Signal;HPM_P1;HPM_P2
2021/09/18 00:00:19;;;;;;;;;18.33;16.67;;;;;;;;5039300;28;45555;-84
2021/09/18 00:02:44;;;;;;;;;17.50;14.00;;;;;;;;5036175;28;45698;-84
2021/09/18 00:05:09;;;;;;;;;17.00;16.33;;;;;;;;5038527;28;45450;-84
2021/09/18 00:07:35;;;;;;;;;17.25;15.25;;;;;;;;5038141;28;45529;-84
2021/09/18 00:10:00;;;;;;;;;15.00;15.00;;;;;;;;5035973;28;45264;-84
2021/09/18 00:12:25;;;;;;;;;16.33;14.00;;;;;;;;5041692;28;45385;-84
2021/09/18 00:14:51;;;;;;;;;15.25;14.25;;;;;;;;5023276;28;45649;-84
2021/09/18 00:17:16;;;;;;;;;15.25;12.75;;;;;;;;5043989;28;44862;-84
2021/09/18 00:19:41;;;;;;;;;11.33;11.33;;;;;;;;5040550;28;45417;-84
2021/09/18 00:22:07;;;;;;;;;12.50;12.50;;;;;;;;5040763;28;46095;-82
2021/09/18 00:24:32;;;;;;;;;15.25;10.00;;;;;;;;5037445;28;45436;-84
2021/09/18 00:26:57;;;;;;;;;15.67;12.67;;;;;;;;5043155;28;45848;-85
2021/09/18 00:29:22;;;;;;;;;18.67;15.67;;;;;;;;5035022;28;45532;-84
2021/09/18 00:31:48;;;;;;;;;16.00;13.50;;;;;;;;5040926;28;46327;-85
2021/09/18 00:34:13;;;;;;;;;12.50;11.50;;;;;;;;5036610;28;45367;-85
2021/09/18 00:36:38;;;;;;;;;18.00;17.00;;;;;;;;5037997;28;45414;-85
2021/09/18 00:39:03;;;;;;;;;19.00;17.00;;;;;;;;5023055;28;45634;-85
2021/09/18 00:41:29;;;;;;;;;17.50;17.50;;;;;;;;5039121;28;46231;-85
2021/09/18 00:43:55;;;;;;;;;20.00;20.00;;;;;;;;5035759;28;45606;-82
2021/09/18 00:46:21;;;;;;;;;19.50;18.00;;;;;;;;5050152;28;45485;-83
2021/09/18 00:48:46;;;;;;;;;14.00;11.75;;;;;;;;5037507;28;45340;-85
2021/09/18 00:51:12;;;;;;;;;18.25;16.50;;;;;;;;5039005;28;46471;-85
2021/09/18 00:53:37;;;;;;;;;16.25;16.25;;;;;;;;5056847;28;45740;-85
2021/09/18 00:56:03;;;;;;;;;22.50;15.75;;;;;;;;5054964;28;45446;-85
2021/09/18 00:58:28;;;;;;;;;20.75;16.00;;;;;;;;5016255;28;45235;-85
2021/09/18 01:00:53;;;;;;;;;21.00;17.50;;;;;;;;5039546;28;47287;-85
2021/09/18 01:03:19;;;;;;;;;17.67;16.00;;;;;;;;5041785;28;45510;-85
2021/09/18 01:05:44;;;;;;;;;18.75;17.00;;;;;;;;5038891;28;45383;-85
2021/09/18 01:08:12;;;;;;;;;26.33;19.33;;;;;;;;5043494;28;45478;-83
2021/09/18 01:10:38;;;;;;;;;21.00;16.75;;;;;;;;5042344;28;45361;-85
2021/09/18 01:13:09;;;;;;;;;19.25;19.25;;;;;;;;5055926;28;45520;-82
2021/09/18 01:15:35;;;;;;;;;18.75;17.25;;;;;;;;5035310;28;45389;-82
2021/09/18 01:18:01;;;;;;;;;15.50;14.75;;;;;;;;5037384;28;45327;-85
2021/09/18 01:20:27;;;;;;;;;14.75;12.50;;;;;;;;5037053;28;47897;-84
2021/09/18 01:22:55;;;;;;;;;16.75;15.75;;;;;;;;5033626;28;45677;-84
2021/09/18 01:25:20;;;;;;;;;14.00;14.00;;;;;;;;5023670;28;45332;-85
2021/09/18 01:27:46;;;;;;;;;14.00;12.50;;;;;;;;5038314;28;45390;-85
2021/09/18 01:30:18;;;;;;;;;14.00;13.50;;;;;;;;5034640;28;46215;-82
2021/09/18 01:32:44;;;;;;;;;14.75;12.25;;;;;;;;5044408;28;45437;-84
2021/09/18 01:35:09;;;;;;;;;15.50;13.00;;;;;;;;5018886;28;46091;-85
2021/09/18 01:37:38;;;;;;;;;14.50;13.00;;;;;;;;5039417;28;45428;-85
2021/09/18 01:40:06;;;;;;;;;20.50;18.50;;;;;;;;5037462;28;45515;-85
2021/09/18 01:42:31;;;;;;;;;24.75;23.00;;;;;;;;5036079;28;45705;-85
2021/09/18 01:44:56;;;;;;;;;17.25;15.75;;;;;;;;5038542;28;45434;-85
2021/09/18 01:47:22;;;;;;;;;14.67;13.67;;;;;;;;5020247;28;47182;-85
2021/09/18 01:49:47;;;;;;;;;18.50;16.25;;;;;;;;5039899;28;46181;-85
2021/09/18 01:52:32;;;;;;;;;17.00;14.00;;;;;;;;5025501;28;45457;-85
2021/09/18 01:54:57;;;;;;;;;13.25;12.25;;;;;;;;5042548;28;45488;-84
2021/09/18 01:57:22;;;;;;;;;13.00;11.00;;;;;;;;5034117;28;45792;-84
2021/09/18 01:59:47;;;;;;;;;12.00;11.33;;;;;;;;5038534;28;45434;-85
2021/09/18 02:02:13;;;;;;;;;13.00;11.00;;;;;;;;5039575;28;44760;-85
2021/09/18 02:04:38;;;;;;;;;15.00;14.00;;;;;;;;5037549;28;45367;-85
2021/09/18 02:07:03;;;;;;;;;15.33;14.67;;;;;;;;5036778;28;45499;-85
2021/09/18 02:09:28;;;;;;;;;15.00;11.67;;;;;;;;5037661;28;45522;-85
2021/09/18 02:11:54;;;;;;;;;15.00;14.00;;;;;;;;5036538;28;45462;-84
2021/09/18 02:14:19;;;;;;;;;17.00;14.00;;;;;;;;5036185;28;45248;-84
2021/09/18 02:16:44;;;;;;;;;15.00;11.67;;;;;;;;5033806;28;45550;-85
2021/09/18 02:19:09;;;;;;;;;14.67;13.67;;;;;;;;5036065;28;46409;-85
2021/09/18 02:21:34;;;;;;;;;18.00;11.67;;;;;;;;5034167;28;45509;-85
2021/09/18 02:24:00;;;;;;;;;14.33;13.33;;;;;;;;5038682;28;45552;-85
2021/09/18 02:26:25;;;;;;;;;13.67;11.67;;;;;;;;5038092;28;45511;-85
2021/09/18 02:28:50;;;;;;;;;15.00;13.00;;;;;;;;5039178;28;45510;-85
2021/09/18 02:31:15;;;;;;;;;14.00;14.00;;;;;;;;5036167;28;45405;-85
2021/09/18 02:33:41;;;;;;;;;12.50;12.50;;;;;;;;5061479;28;45525;-85
2021/09/18 02:36:06;;;;;;;;;13.33;10.00;;;;;;;;5037323;28;45565;-84
2021/09/18 02:38:31;;;;;;;;;15.67;15.67;;;;;;;;5041681;28;46651;-84
2021/09/18 02:40:56;;;;;;;;;11.50;10.75;;;;;;;;5038739;28;45699;-84
2021/09/18 02:43:22;;;;;;;;;17.00;13.67;;;;;;;;5018883;28;45752;-85
2021/09/18 02:45:47;;;;;;;;;13.00;13.00;;;;;;;;5037577;28;45525;-85
2021/09/18 02:48:12;;;;;;;;;16.75;13.75;;;;;;;;5037232;28;46395;-84
2021/09/18 02:50:37;;;;;;;;;16.33;13.67;;;;;;;;5052442;28;45499;-85
2021/09/18 02:53:03;;;;;;;;;14.00;11.75;;;;;;;;5039817;28;45335;-85
2021/09/18 02:55:28;;;;;;;;;14.00;12.00;;;;;;;;5032865;28;45847;-85
2021/09/18 02:57:54;;;;;;;;;14.75;12.50;;;;;;;;5055406;28;46904;-85
2021/09/18 03:00:19;;;;;;;;;16.33;13.33;;;;;;;;5038036;28;45442;-84
2021/09/18 03:02:44;;;;;;;;;15.00;13.00;;;;;;;;5041875;28;45165;-85
2021/09/18 03:05:10;;;;;;;;;16.25;12.75;;;;;;;;5022203;28;45377;-85
2021/09/18 03:07:35;;;;;;;;;16.75;14.00;;;;;;;;5052116;28;48029;-85
2021/09/18 03:10:00;;;;;;;;;13.00;13.00;;;;;;;;5039319;28;45323;-85
2021/09/18 03:12:26;;;;;;;;;13.50;11.50;;;;;;;;5037124;28;45265;-84
2021/09/18 03:14:51;;;;;;;;;13.00;12.33;;;;;;;;5033867;28;45252;-85
2021/09/18 03:17:16;;;;;;;;;15.33;11.00;;;;;;;;5057779;28;47397;-84
2021/09/18 03:19:41;;;;;;;;;14.00;10.33;;;;;;;;5074450;28;44818;-85
2021/09/18 03:22:06;;;;;;;;;13.33;10.67;;;;;;;;5061950;28;45417;-85
2021/09/18 03:24:32;;;;;;;;;11.67;10.67;;;;;;;;5038766;28;45422;-84
2021/09/18 03:26:57;;;;;;;;;13.50;12.75;;;;;;;;5041145;28;45469;-85
2021/09/18 03:29:24;;;;;;;;;13.33;13.00;;;;;;;;5033333;28;45632;-85
2021/09/18 03:31:49;;;;;;;;;13.25;12.00;;;;;;;;5037729;28;45568;-84
2021/09/18 03:34:14;;;;;;;;;11.33;11.00;;;;;;;;5037650;28;45394;-85
2021/09/18 03:36:39;;;;;;;;;13.75;10.50;;;;;;;;5037688;28;46391;-85
2021/09/18 03:39:05;;;;;;;;;16.67;14.00;;;;;;;;5037399;28;45498;-85
2021/09/18 03:41:30;;;;;;;;;15.00;11.67;;;;;;;;5037864;28;45464;-85
2021/09/18 03:43:55;;;;;;;;;16.00;14.00;;;;;;;;5037230;28;45457;-84
2021/09/18 03:46:20;;;;;;;;;14.00;13.67;;;;;;;;5042198;28;46432;-85
2021/09/18 03:48:46;;;;;;;;;14.75;13.75;;;;;;;;5040149;28;45311;-84
2021/09/18 03:51:11;;;;;;;;;14.50;13.25;;;;;;;;5039428;28;45311;-85
2021/09/18 03:53:36;;;;;;;;;18.33;16.67;;;;;;;;5041665;28;45240;-85
2021/09/18 03:56:02;;;;;;;;;19.50;17.75;;;;;;;;5042082;28;45457;-85
2021/09/18 03:58:27;;;;;;;;;22.75;16.75;;;;;;;;5043321;28;45374;-85
2021/09/18 04:00:52;;;;;;;;;16.33;14.67;;;;;;;;5026699;28;45214;-82
2021/09/18 04:03:17;;;;;;;;;15.00;12.75;;;;;;;;5060064;28;45610;-84
2021/09/18 04:05:43;;;;;;;;;16.67;13.67;;;;;;;;5035632;28;45411;-85
2021/09/18 04:08:09;;;;;;;;;19.33;16.33;;;;;;;;5043212;28;46073;-84
2021/09/18 04:10:35;;;;;;;;;16.75;15.75;;;;;;;;5042871;28;45414;-84
2021/09/18 04:13:00;;;;;;;;;16.75;15.00;;;;;;;;5022092;28;45372;-84
2021/09/18 04:15:25;;;;;;;;;13.75;12.75;;;;;;;;5039572;28;45323;-85
2021/09/18 04:17:50;;;;;;;;;13.67;13.67;;;;;;;;5032417;28;45884;-85
2021/09/18 04:20:16;;;;;;;;;14.33;12.00;;;;;;;;5040670;28;45336;-84
2021/09/18 04:22:41;;;;;;;;;13.00;11.00;;;;;;;;5013234;28;45334;-85
2021/09/18 04:25:06;;;;;;;;;12.50;11.00;;;;;;;;5015343;28;46308;-85
2021/09/18 04:27:32;;;;;;;;;12.75;10.50;;;;;;;;5019622;28;45355;-84
2021/09/18 04:29:57;;;;;;;;;14.67;13.00;;;;;;;;5021489;28;45390;-85
2021/09/18 04:32:22;;;;;;;;;11.00;10.33;;;;;;;;5017896;28;45435;-84
2021/09/18 04:34:47;;;;;;;;;14.33;11.33;;;;;;;;5048489;28;46997;-85
2021/09/18 04:37:13;;;;;;;;;15.00;12.00;;;;;;;;5033675;28;45384;-85
2021/09/18 04:39:38;;;;;;;;;15.75;13.25;;;;;;;;5031936;28;45496;-85
2021/09/18 04:42:03;;;;;;;;;12.33;12.00;;;;;;;;5018260;28;45474;-83
2021/09/18 04:44:28;;;;;;;;;13.00;11.25;;;;;;;;5018961;28;46037;-85
2021/09/18 04:46:54;;;;;;;;;14.25;11.25;;;;;;;;5019228;28;45501;-85
2021/09/18 04:49:19;;;;;;;;;11.33;10.00;;;;;;;;5017007;28;45632;-84
2021/09/18 04:51:44;;;;;;;;;10.33;8.33;;;;;;;;5021405;28;45331;-85
2021/09/18 04:54:09;;;;;;;;;12.33;10.00;;;;;;;;5021914;28;47173;-85
2021/09/18 04:56:34;;;;;;;;;12.67;10.33;;;;;;;;5018949;28;45398;-85
2021/09/18 04:59:01;;;;;;;;;10.67;9.00;;;;;;;;5050503;28;47027;-85
2021/09/18 05:01:27;;;;;;;;;10.75;10.75;;;;;;;;5014603;28;47027;-85
2021/09/18 05:03:52;;;;;;;;;12.00;12.00;;;;;;;;5033291;28;47073;-82
2021/09/18 05:06:17;;;;;;;;;14.00;11.67;;;;;;;;5021317;28;45386;-85
2021/09/18 05:08:42;;;;;;;;;12.25;9.50;;;;;;;;5021578;28;45232;-84
2021/09/18 05:11:07;;;;;;;;;10.33;10.33;;;;;;;;5035243;28;45590;-85
2021/09/18 05:13:33;;;;;;;;;15.50;11.75;;;;;;;;5024668;28;46339;-84
2021/09/18 05:15:58;;;;;;;;;11.33;11.33;;;;;;;;5018760;28;45305;-84
2021/09/18 05:18:23;;;;;;;;;9.00;9.00;;;;;;;;5028678;28;45351;-85
2021/09/18 05:20:48;;;;;;;;;11.67;11.00;;;;;;;;5037201;28;45587;-82
2021/09/18 05:23:14;;;;;;;;;11.00;10.33;;;;;;;;5036686;28;46270;-85
2021/09/18 05:25:39;;;;;;;;;12.25;10.75;;;;;;;;5038965;28;45283;-85
2021/09/18 05:28:04;;;;;;;;;11.25;11.25;;;;;;;;5011237;28;45461;-85
2021/09/18 05:30:30;;;;;;;;;10.75;9.75;;;;;;;;5045422;28;45366;-85
2021/09/18 05:32:55;;;;;;;;;11.00;11.00;;;;;;;;5018414;28;47261;-85
2021/09/18 05:35:20;;;;;;;;;11.67;10.67;;;;;;;;5033475;28;45287;-85
2021/09/18 05:37:45;;;;;;;;;11.00;10.50;;;;;;;;5040974;28;45493;-85
2021/09/18 05:40:11;;;;;;;;;8.00;8.00;;;;;;;;5041072;28;45145;-85
2021/09/18 05:42:37;;;;;;;;;10.50;10.50;;;;;;;;5039456;28;45825;-85
2021/09/18 05:45:03;;;;;;;;;12.00;10.25;;;;;;;;5041363;28;45651;-85
2021/09/18 05:47:28;;;;;;;;;13.25;9.00;;;;;;;;5036867;28;45431;-84
2021/09/18 05:49:53;;;;;;;;;11.75;10.75;;;;;;;;5038673;28;45778;-84
2021/09/18 05:52:19;;;;;;;;;12.33;10.67;;;;;;;;5021097;28;47247;-85
2021/09/18 05:54:44;;;;;;;;;13.00;11.00;;;;;;;;5042363;28;45280;-84
2021/09/18 05:57:09;;;;;;;;;10.00;8.33;;;;;;;;5039705;28;45572;-84
2021/09/18 05:59:34;;;;;;;;;12.25;10.00;;;;;;;;5042453;28;45596;-84
2021/09/18 06:02:00;;;;;;;;;13.75;10.50;;;;;;;;5052264;28;48320;-85
2021/09/18 06:04:25;;;;;;;;;11.75;10.75;;;;;;;;5040894;28;45688;-85
2021/09/18 06:06:50;;;;;;;;;10.75;10.50;;;;;;;;5038077;28;45366;-85
2021/09/18 06:09:16;;;;;;;;;10.50;9.25;;;;;;;;5022664;28;45475;-82
2021/09/18 06:11:41;;;;;;;;;13.33;11.33;;;;;;;;5038211;28;45690;-82
2021/09/18 06:14:06;;;;;;;;;13.00;11.33;;;;;;;;5042636;28;45927;-83
2021/09/18 06:16:31;;;;;;;;;10.00;10.00;;;;;;;;5043787;28;47036;-83
2021/09/18 06:18:56;;;;;;;;;8.75;8.75;;;;;;;;5046857;28;45404;-84
2021/09/18 06:21:22;;;;;;;;;11.00;11.00;;;;;;;;5049222;28;47377;-84
2021/09/18 06:23:48;;;;;;;;;12.00;11.00;;;;;;;;5042555;28;44956;-83
2021/09/18 06:26:16;;;;;;;;;9.50;9.50;;;;;;;;5067811;28;45257;-83
2021/09/18 06:28:41;;;;;;;;;12.25;11.50;;;;;;;;5044515;28;45492;-84
2021/09/18 06:31:07;;;;;;;;;11.25;11.25;;;;;;;;5031234;28;47486;-83
2021/09/18 06:33:32;;;;;;;;;13.75;11.50;;;;;;;;5041311;28;45639;-83
2021/09/18 06:35:58;;;;;;;;;11.25;10.50;;;;;;;;5044737;28;45556;-86
2021/09/18 06:38:23;;;;;;;;;9.75;9.25;;;;;;;;5043379;28;45393;-86
2021/09/18 06:40:52;;;;;;;;;10.75;8.50;;;;;;;;5053458;28;47422;-85
2021/09/18 06:43:18;;;;;;;;;10.75;10.75;;;;;;;;5019097;28;45247;-84
2021/09/18 06:45:44;;;;;;;;;10.25;10.25;;;;;;;;5025088;28;45433;-85
2021/09/18 06:48:10;;;;;;;;;13.00;10.50;;;;;;;;5021494;28;45417;-85
2021/09/18 06:50:37;;;;;;;;;12.00;9.00;;;;;;;;5042277;28;46220;-86
2021/09/18 06:53:02;;;;;;;;;15.75;11.75;;;;;;;;5014351;28;45645;-84
2021/09/18 06:55:28;;;;;;;;;10.67;10.00;;;;;;;;5038636;28;45612;-84
2021/09/18 06:57:53;;;;;;;;;14.00;11.33;;;;;;;;5033556;28;45474;-84
2021/09/18 07:00:19;;;;;;;;;14.50;12.50;;;;;;;;5016349;28;48151;-84
2021/09/18 07:02:44;;;;;;;;;13.00;11.00;;;;;;;;5038402;28;45402;-85
2021/09/18 07:05:09;;;;;;;;;11.75;11.75;;;;;;;;5040319;28;45577;-84
2021/09/18 07:07:36;;;;;;;;;10.00;8.75;;;;;;;;5039893;28;45418;-84
2021/09/18 07:10:01;;;;;;;;;15.50;12.25;;;;;;;;5022998;28;47162;-85
2021/09/18 07:12:28;;;;;;;;;11.00;10.00;;;;;;;;5041967;28;45416;-86
2021/09/18 07:14:53;;;;;;;;;14.25;11.75;;;;;;;;5026222;28;45403;-84
2021/09/18 07:17:18;;;;;;;;;12.50;12.50;;;;;;;;5042112;28;45478;-82
2021/09/18 07:19:43;;;;;;;;;14.75;12.75;;;;;;;;5053107;28;45439;-82
2021/09/18 07:22:09;;;;;;;;;15.00;12.00;;;;;;;;5040101;28;45319;-82
2021/09/18 07:24:34;;;;;;;;;13.33;11.33;;;;;;;;5048367;28;45438;-86
2021/09/18 07:27:00;;;;;;;;;14.75;12.00;;;;;;;;5038138;28;45576;-87
2021/09/18 07:29:25;;;;;;;;;11.00;11.00;;;;;;;;5034634;28;45391;-86
2021/09/18 07:31:50;;;;;;;;;13.00;8.50;;;;;;;;5019709;28;45425;-85
2021/09/18 07:34:16;;;;;;;;;10.25;10.25;;;;;;;;5041057;28;45581;-86
2021/09/18 07:36:42;;;;;;;;;9.75;9.50;;;;;;;;5041762;28;45412;-86
2021/09/18 07:39:07;;;;;;;;;10.00;10.00;;;;;;;;5036945;28;48578;-85
2021/09/18 07:41:32;;;;;;;;;9.33;6.33;;;;;;;;5038683;28;45335;-86
2021/09/18 07:44:00;;;;;;;;;7.50;7.50;;;;;;;;5041789;28;45332;-86
2021/09/18 07:46:26;;;;;;;;;16.75;11.00;;;;;;;;5040183;28;46891;-84
2021/09/18 07:48:51;;;;;;;;;10.00;10.00;;;;;;;;5039370;28;46103;-86
2021/09/18 07:51:16;;;;;;;;;12.00;11.00;;;;;;;;5037416;28;45355;-87
2021/09/18 07:53:42;;;;;;;;;15.33;12.00;;;;;;;;5036704;28;45391;-90
2021/09/18 07:56:08;;;;;;;;;11.67;10.00;;;;;;;;5017044;28;45505;-86
2021/09/18 07:58:34;;;;;;;;;13.00;12.00;;;;;;;;5019908;28;47542;-86
2021/09/18 08:00:59;;;;;;;;;9.50;9.25;;;;;;;;5037422;28;46365;-87
2021/09/18 08:03:24;;;;;;;;;14.50;11.25;;;;;;;;5044197;28;45402;-85
2021/09/18 08:05:49;;;;;;;;;10.67;10.33;;;;;;;;5041343;28;45158;-86
2021/09/18 08:08:15;;;;;;;;;13.75;10.50;;;;;;;;5040603;28;46219;-86
2021/09/18 08:10:40;;;;;;;;;11.00;11.00;;;;;;;;5040252;28;45509;-86
2021/09/18 08:13:05;;;;;;;;;12.00;10.25;;;;;;;;5040917;28;45326;-84
2021/09/18 08:15:31;;;;;;;;;9.75;9.25;;;;;;;;5019779;28;45566;-85
2021/09/18 08:17:56;;;;;;;;;12.50;11.00;;;;;;;;5038237;28;45422;-85
2021/09/18 08:20:22;;;;;;;;;9.75;9.75;;;;;;;;5018333;28;45419;-86
2021/09/18 08:22:48;;;;;;;;;11.25;9.75;;;;;;;;5039675;28;45649;-85
2021/09/18 08:25:13;;;;;;;;;12.25;10.75;;;;;;;;5041339;28;45639;-85
2021/09/18 08:27:39;;;;;;;;;10.25;8.75;;;;;;;;5056135;28;47561;-86
2021/09/18 08:30:07;;;;;;;;;10.50;10.50;;;;;;;;5038352;28;45335;-85
2021/09/18 08:32:33;;;;;;;;;8.50;8.50;;;;;;;;5059089;28;45454;-85
2021/09/18 08:34:58;;;;;;;;;10.00;10.00;;;;;;;;5037705;28;45145;-85
2021/09/18 08:37:23;;;;;;;;;11.00;11.00;;;;;;;;5020653;28;48855;-85
2021/09/18 08:39:49;;;;;;;;;9.50;8.75;;;;;;;;5037582;28;45335;-85
2021/09/18 08:42:14;;;;;;;;;8.50;8.50;;;;;;;;5037856;28;45241;-85
2021/09/18 08:44:39;;;;;;;;;11.75;10.75;;;;;;;;5034801;28;45426;-85
2021/09/18 08:47:05;;;;;;;;;13.75;10.25;;;;;;;;5034564;28;48233;-84
2021/09/18 08:49:31;;;;;;;;;12.00;11.00;;;;;;;;5055476;28;45504;-87
2021/09/18 08:51:59;;;;;;;;;14.50;10.25;;;;;;;;5039218;28;45542;-87
2021/09/18 08:54:24;;;;;;;;;10.00;10.00;;;;;;;;5050858;28;45414;-86
2021/09/18 08:56:50;;;;;;;;;9.00;8.00;;;;;;;;5036677;28;46454;-87
2021/09/18 08:59:15;;;;;;;;;11.50;9.75;;;;;;;;5033576;28;47023;-87
2021/09/18 09:01:40;;;;;;;;;12.50;12.00;;;;;;;;5037126;28;45672;-86
2021/09/18 09:04:10;;;;;;;;;10.00;9.00;;;;;;;;5034745;28;46522;-87
2021/09/18 09:06:50;;;;;;;;;8.25;8.25;;;;;;;;5050237;28;48465;-88
2021/09/18 09:09:15;;;;;;;;;10.00;8.50;;;;;;;;5019956;28;45336;-87
2021/09/18 09:11:51;;;;;;;;;10.00;9.00;;;;;;;;5039097;28;45433;-87
2021/09/18 09:14:17;;;;;;;;;9.75;8.00;;;;;;;;5037260;28;45743;-88
2021/09/18 09:16:59;;;;;;;;;7.00;7.00;;;;;;;;5040098;28;46989;-86
2021/09/18 09:19:24;;;;;;;;;8.25;8.25;;;;;;;;5043363;28;45321;-85
2021/09/18 09:21:52;;;;;;;;;12.50;9.00;;;;;;;;5039116;28;45448;-85
2021/09/18 09:24:18;;;;;;;;;9.00;9.00;;;;;;;;5050759;28;45345;-85
2021/09/18 09:27:02;;;;;;;;;10.75;7.75;;;;;;;;5065306;28;45755;-85
2021/09/18 09:29:46;;;;;;;;;10.00;10.00;;;;;;;;5058076;28;44769;-86
2021/09/18 09:32:24;;;;;;;;;10.00;8.25;;;;;;;;5045642;28;45331;-86
2021/09/18 09:34:52;;;;;;;;;8.00;7.25;;;;;;;;5043943;28;45429;-86
2021/09/18 09:37:17;;;;;;;;;10.75;10.00;;;;;;;;5041584;28;47159;-86
2021/09/18 09:39:48;;;;;;;;;9.67;8.67;;;;;;;;5024975;28;46161;-85
2021/09/18 09:42:13;;;;;;;;;8.75;8.75;;;;;;;;5039489;28;45487;-86
2021/09/18 09:44:39;;;;;;;;;9.33;8.00;;;;;;;;5039921;28;45415;-85
2021/09/18 09:47:09;;;;;;;;;8.33;8.33;;;;;;;;5038681;28;45387;-86
2021/09/18 09:49:46;;;;;;;;;7.75;7.75;;;;;;;;5037124;28;45812;-85
2021/09/18 09:52:19;;;;;;;;;8.00;7.25;;;;;;;;5051671;28;45366;-86
2021/09/18 09:54:44;;;;;;;;;11.25;9.50;;;;;;;;5062081;28;45671;-86
2021/09/18 09:57:11;;;;;;;;;7.50;7.50;;;;;;;;5043918;28;45463;-86
2021/09/18 09:59:36;;;;;;;;;8.25;8.25;;;;;;;;5044953;28;45456;-85
2021/09/18 10:02:02;;;;;;;;;6.75;6.25;;;;;;;;5052664;28;44866;-86
2021/09/18 10:04:28;;;;;;;;;8.00;8.00;;;;;;;;5041740;28;45558;-85
2021/09/18 10:06:53;;;;;;;;;10.75;7.00;;;;;;;;5043894;28;45697;-85
2021/09/18 10:09:19;;;;;;;;;7.25;7.25;;;;;;;;5039031;28;45557;-85
2021/09/18 10:11:47;;;;;;;;;9.00;8.25;;;;;;;;5040995;28;45321;-85
2021/09/18 10:14:19;;;;;;;;;8.25;7.50;;;;;;;;5023259;28;45507;-85
2021/09/18 10:16:45;;;;;;;;;9.50;7.50;;;;;;;;5041205;28;45573;-84
2021/09/18 10:19:11;;;;;;;;;10.00;7.00;;;;;;;;5004091;28;45947;-84
2021/09/18 10:24:20;;;;;;;;;9.25;8.00;;;;;;;;4999711;28;45371;-84
2021/09/18 10:27:05;;;;;;;;;8.75;8.75;;;;;;;;4997398;28;45491;-83
2021/09/18 10:29:32;;;;;;;;;11.75;11.75;;;;;;;;4995705;28;46274;-84
2021/09/18 10:32:01;;;;;;;;;11.25;7.00;;;;;;;;4997728;28;45419;-84
2021/09/18 10:34:26;;;;;;;;;4.50;4.25;;;;;;;;4996404;28;45585;-85
2021/09/18 10:36:52;;;;;;;;;9.00;9.00;;;;;;;;4995147;28;47134;-85
2021/09/18 10:39:19;;;;;;;;;7.25;5.75;;;;;;;;4996119;28;45336;-85
2021/09/18 10:41:44;;;;;;;;;7.00;6.75;;;;;;;;4999209;28;45503;-85
2021/09/18 10:44:10;;;;;;;;;10.50;9.50;;;;;;;;4995528;28;45449;-83
2021/09/18 10:46:39;;;;;;;;;6.00;5.75;;;;;;;;4996525;28;47161;-88
2021/09/18 10:49:04;;;;;;;;;6.00;6.00;;;;;;;;4999117;28;47726;-85
2021/09/18 10:51:33;;;;;;;;;7.00;7.00;;;;;;;;4996411;28;45281;-84
2021/09/18 10:54:06;;;;;;;;;7.75;6.75;;;;;;;;4997054;28;45491;-84
2021/09/18 10:56:51;;;;;;;;;6.25;6.25;;;;;;;;4994304;28;45474;-84
2021/09/18 10:59:17;;;;;;;;;7.75;7.75;;;;;;;;4995590;28;45404;-84
2021/09/18 11:01:42;;;;;;;;;6.00;4.25;;;;;;;;4997611;28;45549;-84
2021/09/18 11:04:27;;;;;;;;;11.33;9.00;;;;;;;;4998952;28;45467;-84
2021/09/18 11:06:52;;;;;;;;;7.75;7.75;;;;;;;;5000360;28;46451;-83
2021/09/18 11:09:37;;;;;;;;;6.25;5.75;;;;;;;;5000518;28;45449;-84
2021/09/18 11:12:13;;;;;;;;;6.50;6.50;;;;;;;;4997699;28;45557;-84
2021/09/18 11:14:38;;;;;;;;;12.00;6.75;;;;;;;;4995355;28;45777;-84
2021/09/18 11:17:23;;;;;;;;;7.00;7.00;;;;;;;;4995672;28;48176;-84
2021/09/18 11:19:54;;;;;;;;;7.25;6.25;;;;;;;;5017446;28;45594;-82
2021/09/18 11:22:20;;;;;;;;;7.25;7.00;;;;;;;;5021441;28;45583;-83
2021/09/18 11:24:45;;;;;;;;;6.50;4.75;;;;;;;;5047242;28;45511;-84
2021/09/18 11:27:11;;;;;;;;;6.33;6.33;;;;;;;;5016415;28;46093;-84
2021/09/18 11:29:37;;;;;;;;;7.25;5.25;;;;;;;;5018169;28;45385;-84
2021/09/18 11:32:14;;;;;;;;;6.25;6.25;;;;;;;;5018953;28;45535;-84
2021/09/18 11:34:43;;;;;;;;;5.00;5.00;;;;;;;;5017752;28;45324;-84
2021/09/18 11:37:10;;;;;;;;;5.50;5.50;;;;;;;;5017445;28;45513;-84
2021/09/18 11:39:43;;;;;;;;;4.75;4.75;;;;;;;;5011378;28;45463;-84
2021/09/18 11:42:09;;;;;;;;;8.25;8.00;;;;;;;;5048613;28;45419;-84
2021/09/18 11:44:34;;;;;;;;;4.33;4.33;;;;;;;;5020768;28;45293;-84
2021/09/18 11:47:04;;;;;;;;;5.75;5.25;;;;;;;;5047050;28;46570;-84
2021/09/18 11:49:32;;;;;;;;;5.25;4.50;;;;;;;;5027661;28;45168;-84
2021/09/18 11:51:59;;;;;;;;;6.50;5.00;;;;;;;;5023717;28;45560;-84
2021/09/18 11:54:24;;;;;;;;;5.75;4.00;;;;;;;;5017055;28;45453;-84
2021/09/18 11:56:51;;;;;;;;;5.50;3.75;;;;;;;;5021913;28;45687;-83
2021/09/18 11:59:17;;;;;;;;;8.25;7.75;;;;;;;;5020212;28;45455;-84
2021/09/18 12:01:46;;;;;;;;;6.25;6.25;;;;;;;;5044284;28;45463;-84
2021/09/18 12:04:11;;;;;;;;;6.25;6.25;;;;;;;;5017369;28;45565;-84
2021/09/18 12:06:37;;;;;;;;;3.33;3.33;;;;;;;;5020942;28;46230;-84
2021/09/18 12:09:02;;;;;;;;;5.00;5.00;;;;;;;;5014818;28;45795;-84
2021/09/18 12:11:28;;;;;;;;;7.25;5.00;;;;;;;;5050700;28;45585;-84
2021/09/18 12:13:55;;;;;;;;;6.00;6.00;;;;;;;;5015170;28;45405;-84
2021/09/18 12:16:22;;;;;;;;;6.50;5.00;;;;;;;;5017344;28;46446;-84
2021/09/18 12:18:49;;;;;;;;;8.25;6.75;;;;;;;;5016666;28;45466;-84
2021/09/18 12:21:20;;;;;;;;;7.00;6.25;;;;;;;;5015187;28;45443;-84
2021/09/18 12:23:46;;;;;;;;;6.25;5.25;;;;;;;;5023955;28;45375;-83
2021/09/18 12:26:12;;;;;;;;;5.75;5.00;;;;;;;;5016916;28;47337;-82
2021/09/18 12:28:37;;;;;;;;;6.50;5.00;;;;;;;;5024424;28;45376;-82
2021/09/18 12:31:15;;;;;;;;;5.50;5.50;;;;;;;;5022981;28;45481;-82
2021/09/18 12:33:40;;;;;;;;;4.75;4.75;;;;;;;;5055048;28;45480;-82
2021/09/18 12:36:32;;;;;;;;;6.00;6.00;;;;;;;;5022739;28;45910;-81
2021/09/18 12:38:57;;;;;;;;;4.50;4.50;;;;;;;;5023000;28;45564;-83
2021/09/18 12:41:24;;;;;;;;;7.75;6.50;;;;;;;;5025628;28;45243;-82
2021/09/18 12:43:53;;;;;;;;;5.75;3.50;;;;;;;;5024307;28;45379;-82
2021/09/18 12:46:19;;;;;;;;;5.75;5.75;;;;;;;;5022184;28;47515;-82
2021/09/18 12:48:54;;;;;;;;;5.75;5.75;;;;;;;;5020365;28;46048;-83
2021/09/18 12:51:19;;;;;;;;;6.25;6.25;;;;;;;;5012330;28;45467;-83
2021/09/18 12:53:48;;;;;;;;;4.25;4.25;;;;;;;;5021297;28;45511;-82
2021/09/18 12:56:13;;;;;;;;;4.00;4.00;;;;;;;;5019393;28;45418;-82
2021/09/18 12:58:40;;;;;;;;;4.00;4.00;;;;;;;;5020683;28;45459;-82
2021/09/18 13:01:07;;;;;;;;;7.75;5.00;;;;;;;;5017294;28;45447;-82
2021/09/18 13:03:33;;;;;;;;;6.50;5.00;;;;;;;;5015323;28;45847;-83
2021/09/18 13:05:59;;;;;;;;;5.50;5.25;;;;;;;;5020239;28;46219;-82
2021/09/18 13:08:25;;;;;;;;;4.75;4.75;;;;;;;;5012968;28;45694;-82
2021/09/18 13:10:50;;;;;;;;;6.00;6.00;;;;;;;;5017417;28;45615;-79
2021/09/18 13:13:31;;;;;;;;;4.00;4.00;;;;;;;;5017706;28;45435;-84
2021/09/18 13:16:00;;;;;;;;;6.00;6.00;;;;;;;;5015870;28;46916;-83
2021/09/18 13:18:26;;;;;;;;;5.75;5.75;;;;;;;;5028561;28;45702;-82
2021/09/18 13:20:51;;;;;;;;;6.00;5.25;;;;;;;;5044478;28;45432;-83
2021/09/18 13:23:16;;;;;;;;;8.00;7.00;;;;;;;;5038293;28;45330;-83
2021/09/18 13:25:42;;;;;;;;;6.00;5.00;;;;;;;;5042435;28;45362;-83
2021/09/18 13:28:07;;;;;;;;;5.67;5.67;;;;;;;;5018765;28;45445;-83
2021/09/18 13:30:32;;;;;;;;;6.00;5.25;;;;;;;;5034959;28;45371;-83
2021/09/18 13:32:58;;;;;;;;;5.00;4.67;;;;;;;;5038979;28;45286;-83
2021/09/18 13:35:24;;;;;;;;;4.25;4.25;;;;;;;;5032657;28;48189;-83
2021/09/18 13:37:49;;;;;;;;;10.67;7.67;;;;;;;;5044384;28;45956;-83
2021/09/18 13:40:14;;;;;;;;;5.00;5.00;;;;;;;;5032117;28;45492;-82
2021/09/18 13:42:39;;;;;;;;;5.25;5.25;;;;;;;;5021443;28;45401;-82
2021/09/18 13:45:06;;;;;;;;;5.00;5.00;;;;;;;;5037904;28;47347;-84
2021/09/18 13:47:32;;;;;;;;;6.00;6.00;;;;;;;;5028565;28;47168;-84
2021/09/18 13:49:59;;;;;;;;;5.50;5.50;;;;;;;;5046993;28;46568;-82
2021/09/18 13:52:38;;;;;;;;;5.75;5.75;;;;;;;;5048819;28;45309;-82
2021/09/18 13:55:04;;;;;;;;;5.75;4.75;;;;;;;;5039175;28;45283;-82
2021/09/18 13:57:29;;;;;;;;;5.50;4.75;;;;;;;;5021533;28;45355;-82
2021/09/18 13:59:54;;;;;;;;;6.75;4.50;;;;;;;;5038439;28;45154;-81
2021/09/18 14:02:20;;;;;;;;;6.67;6.67;;;;;;;;5042680;28;45315;-82
2021/09/18 14:04:45;;;;;;;;;5.50;5.50;;;;;;;;5034677;28;48104;-83
2021/09/18 14:07:11;;;;;;;;;5.00;5.00;;;;;;;;5041078;28;45247;-82
2021/09/18 14:09:36;;;;;;;;;4.75;4.75;;;;;;;;5031249;28;45424;-82
2021/09/18 14:12:03;;;;;;;;;6.50;6.50;;;;;;;;5049739;28;45418;-83
2021/09/18 14:14:28;;;;;;;;;6.50;5.75;;;;;;;;5021547;28;46135;-83
2021/09/18 14:16:53;;;;;;;;;6.75;5.25;;;;;;;;5021057;28;45378;-83
2021/09/18 14:19:18;;;;;;;;;5.50;4.50;;;;;;;;5036831;28;45791;-83
2021/09/18 14:21:44;;;;;;;;;5.00;5.00;;;;;;;;5023709;28;45602;-82
2021/09/18 14:24:11;;;;;;;;;4.75;4.50;;;;;;;;5071822;28;47245;-83
2021/09/18 14:26:37;;;;;;;;;4.75;4.75;;;;;;;;5027624;28;45506;-82